createdAt,value
2022-08-27T00:01:18.752Z,6.35
2022-08-27T00:03:45.729Z,6.93
2022-08-27T00:06:15.499Z,7.90
2022-08-27T00:08:45.750Z,5.90
2022-08-27T00:11:13.299Z,5.88
2022-08-27T00:13:40.719Z,6.30
2022-08-27T00:16:09.576Z,7.05
2022-08-27T00:18:38.090Z,6.22
2022-08-27T00:21:06.965Z,6.85
2022-08-27T00:23:34.456Z,5.85
2022-08-27T00:26:01.395Z,5.78
2022-08-27T00:28:29.476Z,5.53
2022-08-27T00:30:56.446Z,5.20
2022-08-27T00:33:23.846Z,5.57
2022-08-27T00:35:51.179Z,6.22
2022-08-27T00:38:19.177Z,5.88
2022-08-27T00:40:46.763Z,6.00
2022-08-27T00:43:20.379Z,6.18
2022-08-27T00:45:47.563Z,5.72
2022-08-27T00:48:18.254Z,5.10
2022-08-27T00:50:51.931Z,6.57
2022-08-27T00:53:23.322Z,6.82
2022-08-27T00:55:54.560Z,5.43
2022-08-27T00:58:28.680Z,6.15
2022-08-27T01:00:56.001Z,7.15
2022-08-27T01:03:25.846Z,6.50
2022-08-27T01:05:54.897Z,6.25
2022-08-27T01:08:24.374Z,5.70
2022-08-27T01:10:52.101Z,4.90
2022-08-27T01:13:21.801Z,5.05
2022-08-27T01:16:10.259Z,5.13
2022-08-27T01:18:38.808Z,4.93
2022-08-27T01:21:12.971Z,5.00
2022-08-27T01:23:52.219Z,5.03
2022-08-27T01:26:20.183Z,5.38
2022-08-27T01:28:48.036Z,4.70
2022-08-27T01:31:15.312Z,5.10
2022-08-27T01:33:54.144Z,4.30
2022-08-27T01:36:20.855Z,3.97
2022-08-27T01:38:47.561Z,4.00
2022-08-27T01:41:15.485Z,4.57
2022-08-27T01:43:42.231Z,4.15
2022-08-27T01:46:09.201Z,3.22
2022-08-27T01:48:36.213Z,3.22
2022-08-27T01:51:03.479Z,3.53
2022-08-27T01:53:30.233Z,3.38
2022-08-27T01:55:57.872Z,3.25
2022-08-27T01:58:30.324Z,2.97
2022-08-27T02:01:02.734Z,3.25
2022-08-27T02:03:29.751Z,3.33
2022-08-27T02:05:57.393Z,3.65
2022-08-27T02:08:24.117Z,3.60
2022-08-27T02:10:51.617Z,3.10
2022-08-27T02:13:18.879Z,3.58
2022-08-27T02:15:45.964Z,3.13
2022-08-27T02:18:13.909Z,3.45
2022-08-27T02:20:42.611Z,3.55
2022-08-27T02:23:09.706Z,3.28
2022-08-27T02:25:36.753Z,2.83
2022-08-27T02:28:04.774Z,3.65
2022-08-27T02:30:34.343Z,3.63
2022-08-27T02:33:02.582Z,3.15
2022-08-27T02:35:31.200Z,3.40
2022-08-27T02:37:58.288Z,3.80
2022-08-27T02:40:25.640Z,3.63
2022-08-27T02:42:52.769Z,3.28
2022-08-27T02:45:20.691Z,3.28
2022-08-27T02:47:48.490Z,2.95
2022-08-27T02:50:15.956Z,2.92
2022-08-27T02:52:45.296Z,2.50
2022-08-27T02:55:14.429Z,3.17
2022-08-27T02:57:44.551Z,2.70
2022-08-27T03:00:15.787Z,3.08
2022-08-27T03:02:42.630Z,2.45
2022-08-27T03:05:11.384Z,2.85
2022-08-27T03:07:38.253Z,2.30
2022-08-27T03:10:06.101Z,2.45
2022-08-27T03:12:34.249Z,2.20
2022-08-27T03:15:01.078Z,2.40
2022-08-27T03:17:46.663Z,2.88
2022-08-27T03:20:13.516Z,1.63
2022-08-27T03:22:40.712Z,1.63
2022-08-27T03:25:08.224Z,1.80
2022-08-27T03:27:35.217Z,1.77
2022-08-27T03:30:04.290Z,2.17
2022-08-27T03:32:31.236Z,1.60
2022-08-27T03:34:59.078Z,1.30
2022-08-27T03:37:26.365Z,2.25
2022-08-27T03:39:53.303Z,1.65
2022-08-27T03:42:20.155Z,2.00
2022-08-27T03:44:47.133Z,1.95
2022-08-27T03:47:14.144Z,2.45
2022-08-27T03:49:41.256Z,1.50
2022-08-27T03:52:08.594Z,2.10
2022-08-27T03:54:39.355Z,1.40
2022-08-27T03:57:06.485Z,2.25
2022-08-27T03:59:33.506Z,1.73
2022-08-27T04:02:01.383Z,1.20
2022-08-27T04:04:28.417Z,1.60
2022-08-27T04:06:55.207Z,1.40
2022-08-27T04:09:25.808Z,1.40
2022-08-27T04:11:52.470Z,1.52
2022-08-27T04:14:26.431Z,1.40
2022-08-27T04:16:56.144Z,1.23
2022-08-27T04:19:27.739Z,1.13
2022-08-27T04:24:25.449Z,1.50
2022-08-27T04:26:52.139Z,1.50
2022-08-27T04:29:18.908Z,0.95
2022-08-27T04:31:45.730Z,2.10
2022-08-27T04:34:12.448Z,0.95
2022-08-27T04:36:39.153Z,1.55
2022-08-27T04:39:05.869Z,1.13
2022-08-27T04:41:33.510Z,1.80
2022-08-27T04:44:08.284Z,1.00
2022-08-27T04:46:38.143Z,1.00
2022-08-27T04:49:10.525Z,1.15
2022-08-27T04:51:40.284Z,1.20
2022-08-27T04:54:08.003Z,0.90
2022-08-27T04:56:35.959Z,1.15
2022-08-27T04:59:05.297Z,1.05
2022-08-27T05:01:32.515Z,1.55
2022-08-27T05:03:59.608Z,1.42
2022-08-27T05:06:26.890Z,0.90
2022-08-27T05:08:54.404Z,0.95
2022-08-27T05:11:23.077Z,0.90
2022-08-27T05:13:50.143Z,1.25
2022-08-27T05:16:20.488Z,1.30
2022-08-27T05:18:48.861Z,1.15
2022-08-27T05:21:22.203Z,1.33
2022-08-27T05:23:49.946Z,1.42
2022-08-27T05:26:17.058Z,1.45
2022-08-27T05:28:44.675Z,1.48
2022-08-27T05:31:14.002Z,1.05
2022-08-27T05:33:42.598Z,1.45
2022-08-27T05:36:20.466Z,0.93
2022-08-27T05:38:51.655Z,0.90
2022-08-27T05:41:25.031Z,1.08
2022-08-27T05:44:01.162Z,1.98
2022-08-27T05:46:29.200Z,1.35
2022-08-27T05:48:58.368Z,0.90
2022-08-27T05:51:28.581Z,1.30
2022-08-27T05:54:04.546Z,1.58
2022-08-27T05:56:35.517Z,1.33
2022-08-27T05:59:21.360Z,1.95
2022-08-27T06:01:50.191Z,1.23
2022-08-27T06:04:18.610Z,1.20
2022-08-27T06:06:46.153Z,1.02
2022-08-27T06:09:16.540Z,1.15
2022-08-27T06:11:43.318Z,0.82
2022-08-27T06:14:10.789Z,1.42
2022-08-27T06:16:38.707Z,1.13
2022-08-27T06:19:07.382Z,1.10
2022-08-27T06:21:34.932Z,1.35
2022-08-27T06:24:02.006Z,1.75
2022-08-27T06:26:29.659Z,1.15
2022-08-27T06:28:56.643Z,0.93
2022-08-27T06:31:26.560Z,1.17
2022-08-27T06:33:57.873Z,1.40
2022-08-27T06:36:28.812Z,0.80
2022-08-27T06:38:57.050Z,0.98
2022-08-27T06:41:26.695Z,1.75
2022-08-27T06:43:55.929Z,1.20
2022-08-27T06:46:25.274Z,1.85
2022-08-27T06:48:53.916Z,1.67
2022-08-27T06:51:31.155Z,1.33
2022-08-27T06:54:00.175Z,1.10
2022-08-27T06:56:27.252Z,1.10
2022-08-27T06:58:56.365Z,1.17
2022-08-27T07:01:26.216Z,1.40
2022-08-27T07:03:55.238Z,1.05
2022-08-27T07:06:25.145Z,1.45
2022-08-27T07:08:53.638Z,1.20
2022-08-27T07:11:20.840Z,1.25
2022-08-27T07:13:48.832Z,1.05
2022-08-27T07:16:19.044Z,1.25
2022-08-27T07:18:46.729Z,1.30
2022-08-27T07:21:13.888Z,0.90
2022-08-27T07:23:40.977Z,1.10
2022-08-27T07:26:12.904Z,1.13
2022-08-27T07:28:41.485Z,0.88
2022-08-27T07:31:10.321Z,1.00
2022-08-27T07:33:40.519Z,1.00
2022-08-27T07:36:13.091Z,1.10
2022-08-27T07:38:39.943Z,1.02
2022-08-27T07:41:12.305Z,1.05
2022-08-27T07:43:57.836Z,1.20
2022-08-27T07:46:25.144Z,1.45
2022-08-27T07:48:53.021Z,1.58
2022-08-27T07:51:21.517Z,1.17
2022-08-27T07:53:49.126Z,0.95
2022-08-27T07:56:16.613Z,1.02
2022-08-27T07:58:43.586Z,1.20
2022-08-27T08:01:11.233Z,1.40
2022-08-27T08:03:38.099Z,1.38
2022-08-27T08:06:07.934Z,1.38
2022-08-27T08:08:36.544Z,1.23
2022-08-27T08:11:07.552Z,1.40
2022-08-27T08:13:36.474Z,1.40
2022-08-27T08:16:03.982Z,1.00
2022-08-27T08:18:31.075Z,1.10
2022-08-27T08:21:08.837Z,1.23
2022-08-27T08:23:36.369Z,1.15
2022-08-27T08:26:03.123Z,1.48
2022-08-27T08:28:30.231Z,1.13
2022-08-27T08:30:59.401Z,1.48
2022-08-27T08:33:27.517Z,1.50
2022-08-27T08:35:54.607Z,1.38
2022-08-27T08:38:21.746Z,1.00
2022-08-27T08:40:54.503Z,1.20
2022-08-27T08:43:35.661Z,1.30
2022-08-27T08:46:17.458Z,1.50
2022-08-27T08:48:49.296Z,1.40
2022-08-27T08:51:29.659Z,2.28
2022-08-27T08:54:05.758Z,1.70
2022-08-27T08:56:42.532Z,1.40
2022-08-27T08:59:18.806Z,1.13
2022-08-27T09:01:45.748Z,1.42
2022-08-27T09:04:12.850Z,1.80
2022-08-27T09:06:42.943Z,1.40
2022-08-27T09:09:21.570Z,1.38
2022-08-27T09:11:51.305Z,1.27
2022-08-27T09:14:41.089Z,1.13
2022-08-27T09:17:13.285Z,1.83
2022-08-27T09:19:40.011Z,0.98
2022-08-27T09:22:34.985Z,1.20
2022-08-27T09:25:16.842Z,1.45
2022-08-27T09:27:50.504Z,1.42
2022-08-27T09:30:30.528Z,2.83
2022-08-27T09:33:04.281Z,1.58
2022-08-27T09:35:45.350Z,1.60
2022-08-27T09:38:26.670Z,1.43
2022-08-27T09:40:53.523Z,1.63
2022-08-27T09:43:24.101Z,1.95
2022-08-27T09:45:54.327Z,1.88
2022-08-27T09:48:25.053Z,1.35
2022-08-27T09:51:16.657Z,2.50
2022-08-27T09:54:02.037Z,1.67
2022-08-27T09:56:35.424Z,2.10
2022-08-27T09:59:24.583Z,2.80
2022-08-27T10:02:06.705Z,2.10
2022-08-27T10:04:51.078Z,2.33
2022-08-27T10:07:52.506Z,2.17
2022-08-27T10:10:34.573Z,1.70
2022-08-27T10:13:01.324Z,2.15
2022-08-27T10:15:51.089Z,2.08
2022-08-27T10:21:27.180Z,2.10
2022-08-27T10:24:13.065Z,2.30
2022-08-27T10:27:05.981Z,2.08
2022-08-27T10:29:38.378Z,2.40
2022-08-27T10:32:25.372Z,1.92
2022-08-27T10:35:33.043Z,1.65
2022-08-27T10:38:10.406Z,2.35
2022-08-27T10:40:51.280Z,2.03
2022-08-27T10:43:59.450Z,2.47
2022-08-27T10:46:47.523Z,2.28
2022-08-27T10:49:26.572Z,2.50
2022-08-27T10:52:19.363Z,2.95
2022-08-27T10:54:56.978Z,1.90
2022-08-27T10:57:55.566Z,2.65
2022-08-27T11:00:34.098Z,2.45
2022-08-27T11:03:40.596Z,2.53
2022-08-27T11:06:38.723Z,2.83
2022-08-27T11:09:19.041Z,3.22
2022-08-27T11:12:13.753Z,3.00
2022-08-27T11:14:52.922Z,3.80
2022-08-27T11:17:32.303Z,2.75
2022-08-27T11:20:11.465Z,2.60
2022-08-27T11:23:19.606Z,2.70
2022-08-27T11:26:02.594Z,3.00
2022-08-27T11:29:06.869Z,2.67
2022-08-27T11:31:58.588Z,2.67
2022-08-27T11:34:46.191Z,2.97
2022-08-27T11:37:21.870Z,3.28
2022-08-27T11:40:09.425Z,2.85
2022-08-27T11:42:48.176Z,2.55
2022-08-27T11:45:29.764Z,3.15
2022-08-27T11:48:16.872Z,2.67
2022-08-27T11:50:58.482Z,2.80
2022-08-27T11:53:31.716Z,2.85
2022-08-27T11:55:58.679Z,2.65
2022-08-27T11:58:29.031Z,2.72
2022-08-27T12:01:02.235Z,2.85
2022-08-27T12:03:33.575Z,2.50
2022-08-27T12:06:18.508Z,2.55
2022-08-27T12:08:45.633Z,2.40
2022-08-27T12:11:41.624Z,2.90
2022-08-27T12:14:32.747Z,2.08
2022-08-27T12:17:14.151Z,3.33
2022-08-27T12:20:00.165Z,2.55
2022-08-27T12:23:09.486Z,2.63
2022-08-27T12:25:36.232Z,2.25
2022-08-27T12:28:09.125Z,2.60
2022-08-27T12:30:51.985Z,2.42
2022-08-27T12:33:29.676Z,2.10
2022-08-27T12:36:03.750Z,2.38
2022-08-27T12:38:34.960Z,2.40
2022-08-27T12:41:09.168Z,2.40
2022-08-27T12:43:39.305Z,2.85
2022-08-27T12:46:19.150Z,2.55
2022-08-27T12:48:56.903Z,2.65
2022-08-27T12:51:26.438Z,2.58
2022-08-27T12:54:06.799Z,2.45
2022-08-27T12:56:54.171Z,1.92
2022-08-27T12:59:49.155Z,1.73
2022-08-27T13:02:32.281Z,2.28
2022-08-27T13:05:04.466Z,1.67
2022-08-27T13:07:43.545Z,2.33
2022-08-27T13:10:16.408Z,1.90
2022-08-27T13:12:45.015Z,1.80
2022-08-27T13:15:15.742Z,2.10
2022-08-27T13:17:45.646Z,2.25
2022-08-27T13:20:22.544Z,2.25
2022-08-27T13:22:51.172Z,2.78
2022-08-27T13:25:35.492Z,1.67
2022-08-27T13:28:10.258Z,1.73
2022-08-27T13:30:44.987Z,2.17
2022-08-27T13:33:36.363Z,1.80
2022-08-27T13:36:04.054Z,1.70
2022-08-27T13:38:33.997Z,1.38
2022-08-27T13:41:09.836Z,1.73
2022-08-27T13:43:42.545Z,1.30
2022-08-27T13:46:16.728Z,1.77
2022-08-27T13:48:45.510Z,1.45
2022-08-27T13:51:13.823Z,1.00
2022-08-27T13:54:05.769Z,1.52
2022-08-27T13:59:20.449Z,1.83
2022-08-27T14:02:09.527Z,1.63
2022-08-27T14:05:05.506Z,1.38
2022-08-27T14:07:41.331Z,1.30
2022-08-27T14:10:21.986Z,1.20
2022-08-27T14:12:59.413Z,1.65
2022-08-27T14:15:38.423Z,1.27
2022-08-27T14:18:08.943Z,1.30
2022-08-27T14:20:36.861Z,1.58
2022-08-27T14:23:04.427Z,1.33
2022-08-27T14:25:31.468Z,1.10
2022-08-27T14:27:58.183Z,1.67
2022-08-27T14:30:29.578Z,1.83
2022-08-27T14:33:00.869Z,1.40
2022-08-27T14:35:29.310Z,1.20
2022-08-27T14:37:56.455Z,1.35
2022-08-27T14:40:23.378Z,0.98
2022-08-27T14:42:50.252Z,1.15
2022-08-27T14:45:18.390Z,1.48
2022-08-27T14:47:45.398Z,1.38
2022-08-27T14:50:14.018Z,1.20
2022-08-27T14:52:40.927Z,1.65
2022-08-27T14:55:10.897Z,1.00
2022-08-27T14:57:38.760Z,1.15
2022-08-27T15:00:08.051Z,1.30
2022-08-27T15:02:35.612Z,1.20
2022-08-27T15:05:11.396Z,1.27
2022-08-27T15:07:38.918Z,1.40
2022-08-27T15:10:09.130Z,1.27
2022-08-27T15:12:36.313Z,1.30
2022-08-27T15:15:04.532Z,1.20
2022-08-27T15:17:33.433Z,1.20
2022-08-27T15:20:07.811Z,1.27
2022-08-27T15:22:36.193Z,1.50
2022-08-27T15:25:06.415Z,1.50
2022-08-27T15:27:38.119Z,1.30
2022-08-27T15:30:11.490Z,1.20
2022-08-27T15:32:44.711Z,0.98
2022-08-27T15:35:18.256Z,3.10
2022-08-27T15:37:45.828Z,1.77
2022-08-27T15:40:15.373Z,3.65
2022-08-27T15:42:42.702Z,5.97
2022-08-27T15:45:11.313Z,4.45
2022-08-27T15:47:38.038Z,1.90
2022-08-27T15:50:05.566Z,1.80
2022-08-27T15:52:41.047Z,2.17
2022-08-27T15:55:18.562Z,1.30
2022-08-27T15:57:45.294Z,2.38
2022-08-27T16:00:12.705Z,1.27
2022-08-27T16:02:40.738Z,1.33
2022-08-27T16:05:07.997Z,2.60
2022-08-27T16:07:34.672Z,5.32
2022-08-27T16:10:02.033Z,1.20
2022-08-27T16:12:28.911Z,1.40
2022-08-27T16:14:59.106Z,1.75
2022-08-27T16:17:26.811Z,1.20
2022-08-27T16:19:53.658Z,1.20
2022-08-27T16:22:20.494Z,1.50
2022-08-27T16:24:47.219Z,1.88
2022-08-27T16:27:13.933Z,2.03
2022-08-27T16:29:40.679Z,1.55
2022-08-27T16:32:11.270Z,0.90
2022-08-27T16:34:39.303Z,1.65
2022-08-27T16:37:06.144Z,0.90
2022-08-27T16:39:36.322Z,1.30
2022-08-27T16:42:05.971Z,1.00
2022-08-27T16:44:33.823Z,1.77
2022-08-27T16:47:00.562Z,1.88
2022-08-27T16:49:46.161Z,1.20
2022-08-27T16:52:12.951Z,1.30
2022-08-27T16:54:39.903Z,1.48
2022-08-27T16:57:06.697Z,1.10
2022-08-27T16:59:33.460Z,1.73
2022-08-27T17:02:00.498Z,2.03
2022-08-27T17:04:31.447Z,2.55
2022-08-27T17:07:03.571Z,1.70
2022-08-27T17:09:30.331Z,1.30
2022-08-27T17:11:58.382Z,1.52
2022-08-27T17:14:26.294Z,2.17
2022-08-27T17:16:54.028Z,1.70
2022-08-27T17:19:22.330Z,1.20
2022-08-27T17:21:52.453Z,1.55
2022-08-27T17:24:19.270Z,1.48
2022-08-27T17:26:46.079Z,2.28
2022-08-27T17:29:15.220Z,1.60
2022-08-27T17:31:44.018Z,1.55
2022-08-27T17:34:22.782Z,1.88
2022-08-27T17:36:51.635Z,1.77
2022-08-27T17:39:19.277Z,1.45
2022-08-27T17:41:48.771Z,1.45
2022-08-27T17:44:25.016Z,1.13
2022-08-27T17:46:54.890Z,0.93
2022-08-27T17:49:29.080Z,1.05
2022-08-27T17:52:04.464Z,1.23
2022-08-27T17:57:40.711Z,1.00
2022-08-27T18:00:26.273Z,0.90
2022-08-27T18:04:05.221Z,1.08
2022-08-27T18:06:31.797Z,1.25
2022-08-27T18:09:19.745Z,0.98
2022-08-27T18:15:37.553Z,1.65
2022-08-27T18:18:08.984Z,1.38
2022-08-27T18:20:37.003Z,1.48
2022-08-27T18:25:37.329Z,1.23
2022-08-27T18:28:07.675Z,1.80
2022-08-27T18:30:35.439Z,0.82
2022-08-27T18:33:02.658Z,1.23
2022-08-27T18:35:32.252Z,1.08
2022-08-27T18:37:59.092Z,1.00
2022-08-27T18:40:29.764Z,0.93
2022-08-27T18:42:57.340Z,1.00
2022-08-27T18:45:28.621Z,1.13
2022-08-27T18:47:58.421Z,1.50
2022-08-27T18:50:26.144Z,1.00
2022-08-27T18:52:54.758Z,1.10
2022-08-27T18:55:24.726Z,0.90
2022-08-27T18:57:52.339Z,1.02
2022-08-27T19:00:19.592Z,0.82
2022-08-27T19:02:52.071Z,1.05
2022-08-27T19:05:24.141Z,0.73
2022-08-27T19:07:51.045Z,0.90
2022-08-27T19:10:18.294Z,0.70
2022-08-27T19:12:46.821Z,0.90
2022-08-27T19:15:13.938Z,0.75
2022-08-27T19:17:43.570Z,1.00
2022-08-27T19:20:11.509Z,1.25
2022-08-27T19:22:38.626Z,1.20
2022-08-27T19:25:07.469Z,0.90
2022-08-27T19:27:34.619Z,1.48
2022-08-27T19:30:01.521Z,1.00
2022-08-27T19:32:28.299Z,0.98
2022-08-27T19:34:55.107Z,1.08
2022-08-27T19:37:25.318Z,1.40
2022-08-27T19:39:52.908Z,1.10
2022-08-27T19:42:19.702Z,1.33
2022-08-27T19:44:46.668Z,1.38
2022-08-27T19:47:16.682Z,0.90
2022-08-27T19:49:49.658Z,1.00
2022-08-27T19:52:16.368Z,1.50
2022-08-27T19:55:09.762Z,1.08
2022-08-27T19:57:29.772Z,1.10
2022-08-27T19:59:56.488Z,1.23
2022-08-27T20:02:23.300Z,1.23
2022-08-27T20:05:14.325Z,1.70
2022-08-27T20:07:36.669Z,1.65
2022-08-27T20:10:08.203Z,1.77
2022-08-27T20:12:36.298Z,2.17
2022-08-27T20:15:04.622Z,1.77
2022-08-27T20:17:31.622Z,1.83
2022-08-27T20:19:58.839Z,1.67
2022-08-27T20:22:25.627Z,1.50
2022-08-27T20:24:52.345Z,1.77
2022-08-27T20:27:19.095Z,2.10
2022-08-27T20:29:45.811Z,1.70
2022-08-27T20:32:13.674Z,1.98
2022-08-27T20:34:40.481Z,2.03
2022-08-27T20:37:07.501Z,1.90
2022-08-27T20:39:34.360Z,1.65
2022-08-27T20:42:01.075Z,2.35
2022-08-27T20:44:27.944Z,2.00
2022-08-27T20:46:59.207Z,2.03
2022-08-27T20:49:27.925Z,2.10
2022-08-27T20:52:02.574Z,1.98
2022-08-27T20:54:31.597Z,2.13
2022-08-27T20:56:58.476Z,1.80
2022-08-27T20:59:44.337Z,1.67
2022-08-27T21:02:26.266Z,1.85
2022-08-27T21:07:26.240Z,2.10
2022-08-27T21:09:57.540Z,2.15
2022-08-27T21:12:26.965Z,2.58
2022-08-27T21:14:56.184Z,2.55
2022-08-27T21:17:25.163Z,2.05
2022-08-27T21:19:55.121Z,2.17
2022-08-27T21:22:29.224Z,2.30
2022-08-27T21:24:55.915Z,2.65
2022-08-27T21:27:22.728Z,1.90
2022-08-27T21:29:50.276Z,2.13
2022-08-27T21:32:17.224Z,2.25
2022-08-27T21:34:45.371Z,2.00
2022-08-27T21:37:13.921Z,1.98
2022-08-27T21:39:42.225Z,2.17
2022-08-27T21:42:10.349Z,2.65
2022-08-27T21:44:38.028Z,2.47
2022-08-27T21:47:05.764Z,2.10
2022-08-27T21:49:33.693Z,2.15
2022-08-27T21:52:05.987Z,2.67
2022-08-27T21:54:35.027Z,2.50
2022-08-27T21:57:04.180Z,2.38
2022-08-27T21:59:39.885Z,2.30
2022-08-27T22:02:28.901Z,2.00
2022-08-27T22:04:54.324Z,2.25
2022-08-27T22:07:22.191Z,2.33
2022-08-27T22:09:48.894Z,2.63
2022-08-27T22:12:16.725Z,2.40
2022-08-27T22:14:43.422Z,2.45
2022-08-27T22:17:10.196Z,2.60
2022-08-27T22:19:36.865Z,2.28
2022-08-27T22:22:03.793Z,2.25
2022-08-27T22:24:30.455Z,2.22
2022-08-27T22:26:57.144Z,2.20
2022-08-27T22:29:24.517Z,2.08
2022-08-27T22:31:51.380Z,3.17
2022-08-27T22:34:18.067Z,2.10
2022-08-27T22:36:44.814Z,1.98
2022-08-27T22:39:11.498Z,2.25
2022-08-27T22:41:38.452Z,1.67
2022-08-27T22:44:08.573Z,2.10
2022-08-27T22:46:35.558Z,2.55
2022-08-27T22:49:02.351Z,2.22
2022-08-27T22:51:29.085Z,2.35
2022-08-27T22:53:55.776Z,2.60
2022-08-27T22:56:22.742Z,2.70
2022-08-27T22:58:49.551Z,2.33
2022-08-27T23:01:21.219Z,2.42
2022-08-27T23:03:48.373Z,2.22
2022-08-27T23:06:15.374Z,2.20
2022-08-27T23:08:42.086Z,2.35
2022-08-27T23:11:08.763Z,2.38
2022-08-27T23:13:35.589Z,2.58
2022-08-27T23:16:03.184Z,2.92
2022-08-27T23:18:30.660Z,2.42
2022-08-27T23:20:57.466Z,2.20
2022-08-27T23:23:24.475Z,2.38
2022-08-27T23:26:16.405Z,3.30
2022-08-27T23:28:44.136Z,2.85
2022-08-27T23:31:11.720Z,2.80
2022-08-27T23:33:38.528Z,2.65
2022-08-27T23:36:05.990Z,3.20
2022-08-27T23:38:34.168Z,2.50
2022-08-27T23:41:01.073Z,2.42
2022-08-27T23:43:28.198Z,2.40
2022-08-27T23:45:55.118Z,3.03
2022-08-27T23:48:21.882Z,2.42
2022-08-27T23:50:48.668Z,2.42
2022-08-27T23:53:15.411Z,2.20
2022-08-27T23:55:42.283Z,3.47
2022-08-27T23:58:09.648Z,2.88
